createdAt,value
2018-10-18T00:02:25.939Z,17.27
2018-10-18T00:04:53.531Z,26.43
2018-10-18T00:07:21.090Z,20.03
2018-10-18T00:09:49.261Z,20.17
2018-10-18T00:12:16.914Z,22.00
2018-10-18T00:14:44.390Z,21.23
2018-10-18T00:17:12.354Z,18.67
2018-10-18T00:19:39.943Z,19.73
2018-10-18T00:22:08.300Z,16.00
2018-10-18T00:24:35.861Z,18.20
2018-10-18T00:27:03.422Z,19.97
2018-10-18T00:29:31.010Z,21.83
2018-10-18T00:31:58.635Z,16.40
2018-10-18T00:34:27.455Z,17.77
2018-10-18T00:36:55.026Z,17.03
2018-10-18T00:39:22.594Z,23.53
2018-10-18T00:41:50.949Z,23.77
2018-10-18T00:44:18.588Z,21.17
2018-10-18T00:46:46.567Z,21.70
2018-10-18T00:49:14.136Z,21.00
2018-10-18T00:51:41.711Z,19.40
2018-10-18T00:54:09.364Z,23.25
2018-10-18T00:56:36.882Z,19.87
2018-10-18T00:59:04.482Z,22.60
2018-10-18T01:01:32.045Z,25.13
2018-10-18T01:03:59.601Z,23.25
2018-10-18T01:06:27.198Z,21.20
2018-10-18T01:08:55.536Z,20.73
2018-10-18T01:11:24.429Z,18.53
2018-10-18T01:13:52.005Z,19.77
2018-10-18T01:16:19.570Z,18.07
2018-10-18T01:18:47.159Z,19.23
2018-10-18T01:21:15.486Z,26.30
2018-10-18T01:23:43.109Z,23.93
2018-10-18T01:26:11.551Z,26.40
2018-10-18T01:28:39.036Z,22.57
2018-10-18T01:31:07.394Z,24.67
2018-10-18T01:33:34.953Z,29.30
2018-10-18T01:36:02.583Z,27.93
2018-10-18T01:38:30.140Z,24.47
2018-10-18T01:40:57.703Z,23.47
2018-10-18T01:43:25.306Z,23.27
2018-10-18T01:45:52.870Z,24.90
2018-10-18T01:48:20.471Z,24.93
2018-10-18T01:50:48.046Z,20.40
2018-10-18T01:53:15.599Z,21.87
2018-10-18T01:55:43.189Z,19.53
2018-10-18T01:58:10.761Z,20.80
2018-10-18T02:00:38.377Z,20.53
2018-10-18T02:03:05.958Z,19.93
2018-10-18T02:05:33.529Z,25.73
2018-10-18T02:08:01.158Z,26.83
2018-10-18T02:10:28.715Z,25.57
2018-10-18T02:12:57.652Z,23.73
2018-10-18T02:15:25.290Z,21.27
2018-10-18T02:17:52.866Z,20.67
2018-10-18T02:20:20.443Z,22.80
2018-10-18T02:22:48.006Z,22.40
2018-10-18T02:25:15.791Z,31.77
2018-10-18T02:27:43.183Z,32.77
2018-10-18T02:30:10.837Z,31.53
2018-10-18T02:32:38.338Z,36.17
2018-10-18T02:35:05.901Z,26.13
2018-10-18T02:37:33.520Z,30.37
2018-10-18T02:40:01.862Z,30.90
2018-10-18T02:42:29.417Z,32.50
2018-10-18T02:44:57.380Z,32.80
2018-10-18T02:47:24.942Z,38.05
2018-10-18T02:49:52.591Z,35.67
2018-10-18T02:52:20.146Z,33.60
2018-10-18T02:54:47.707Z,30.17
2018-10-18T02:57:15.301Z,29.73
2018-10-18T02:59:42.899Z,28.87
2018-10-18T03:02:12.467Z,27.47
2018-10-18T03:04:40.033Z,26.63
2018-10-18T03:07:07.597Z,25.37
2018-10-18T03:09:35.229Z,26.80
2018-10-18T03:12:02.795Z,26.30
2018-10-18T03:14:30.823Z,24.83
2018-10-18T03:16:59.463Z,26.07
2018-10-18T03:19:27.027Z,24.73
2018-10-18T03:21:54.614Z,26.80
2018-10-18T03:24:22.419Z,30.73
2018-10-18T03:26:50.022Z,28.23
2018-10-18T03:29:17.588Z,33.27
2018-10-18T03:31:45.159Z,33.73
2018-10-18T03:34:12.752Z,34.50
2018-10-18T03:36:41.123Z,42.40
2018-10-18T03:39:10.284Z,42.23
2018-10-18T03:41:37.875Z,44.83
2018-10-18T03:44:05.421Z,42.00
2018-10-18T03:46:33.019Z,45.43
2018-10-18T03:49:00.579Z,46.67
2018-10-18T03:51:28.951Z,41.33
2018-10-18T03:53:57.332Z,41.23
2018-10-18T03:56:24.859Z,44.33
2018-10-18T03:58:52.457Z,53.22
2018-10-18T04:01:20.031Z,44.40
2018-10-18T04:03:48.817Z,47.10
2018-10-18T04:06:16.784Z,51.80
2018-10-18T04:08:44.296Z,50.97
2018-10-18T04:11:11.882Z,45.57
2018-10-18T04:13:39.449Z,46.13
2018-10-18T04:16:07.122Z,46.10
2018-10-18T04:18:34.743Z,48.67
2018-10-18T04:21:02.317Z,49.67
2018-10-18T04:23:29.916Z,44.83
2018-10-18T04:25:57.476Z,43.10
2018-10-18T04:28:26.026Z,39.10
2018-10-18T04:30:53.598Z,41.20
2018-10-18T04:33:21.159Z,40.53
2018-10-18T04:35:49.815Z,40.83
2018-10-18T04:38:17.383Z,41.97
2018-10-18T04:40:44.952Z,48.03
2018-10-18T04:43:12.540Z,50.58
2018-10-18T04:45:40.873Z,43.63
2018-10-18T04:48:08.567Z,45.23
2018-10-18T04:50:36.410Z,42.40
2018-10-18T04:53:07.528Z,42.00
2018-10-18T04:55:35.130Z,43.73
2018-10-18T04:58:02.690Z,36.90
2018-10-18T05:00:32.880Z,31.60
2018-10-18T05:02:58.436Z,36.70
2018-10-18T05:05:41.307Z,44.60
2018-10-18T05:08:08.868Z,42.67
2018-10-18T05:10:36.428Z,38.57
2018-10-18T05:13:04.042Z,36.37
2018-10-18T05:15:31.575Z,35.80
2018-10-18T05:18:00.064Z,34.70
2018-10-18T05:20:27.641Z,33.90
2018-10-18T05:22:55.195Z,40.03
2018-10-18T05:25:22.857Z,39.63
2018-10-18T05:27:50.357Z,47.38
2018-10-18T05:30:19.301Z,40.70
2018-10-18T05:32:49.749Z,47.03
2018-10-18T05:35:17.313Z,47.30
2018-10-18T05:37:45.763Z,50.73
2018-10-18T05:40:13.242Z,50.27
2018-10-18T05:42:40.821Z,58.63
2018-10-18T05:45:09.559Z,54.83
2018-10-18T05:47:37.111Z,56.83
2018-10-18T05:50:05.005Z,59.60
2018-10-18T05:52:32.628Z,54.87
2018-10-18T05:55:00.223Z,55.00
2018-10-18T05:57:27.797Z,56.47
2018-10-18T05:59:55.417Z,58.83
2018-10-18T06:02:22.982Z,64.63
2018-10-18T06:04:50.548Z,60.87
2018-10-18T06:07:18.879Z,68.03
2018-10-18T06:09:46.355Z,80.73
2018-10-18T06:12:13.899Z,89.77
2018-10-18T06:14:41.544Z,95.23
2018-10-18T06:17:09.139Z,108.77
2018-10-18T06:19:37.483Z,117.00
2018-10-18T06:22:05.664Z,111.20
2018-10-18T06:24:33.232Z,87.63
2018-10-18T06:27:00.806Z,87.00
2018-10-18T06:29:28.441Z,66.83
2018-10-18T06:31:56.011Z,75.95
2018-10-18T06:34:23.586Z,66.97
2018-10-18T06:36:51.282Z,68.70
2018-10-18T06:39:18.895Z,76.27
2018-10-18T06:41:47.176Z,77.00
2018-10-18T06:44:14.826Z,87.27
2018-10-18T06:46:42.442Z,92.50
2018-10-18T06:49:10.091Z,87.07
2018-10-18T06:51:38.842Z,94.53
2018-10-18T06:54:06.425Z,87.40
2018-10-18T06:56:33.976Z,88.63
2018-10-18T06:59:01.633Z,91.93
2018-10-18T07:01:29.207Z,91.57
2018-10-18T07:03:56.771Z,105.28
2018-10-18T07:06:24.415Z,93.07
2018-10-18T07:08:51.964Z,100.78
2018-10-18T07:11:19.531Z,76.13
2018-10-18T07:13:47.147Z,74.43
2018-10-18T07:16:14.751Z,74.15
2018-10-18T07:18:42.318Z,58.03
2018-10-18T07:21:10.273Z,62.87
2018-10-18T07:23:37.834Z,61.90
2018-10-18T07:26:05.392Z,63.13
2018-10-18T07:28:33.067Z,67.73
2018-10-18T07:31:00.643Z,53.83
2018-10-18T07:33:28.208Z,57.83
2018-10-18T07:35:55.880Z,59.77
2018-10-18T07:38:23.392Z,80.10
2018-10-18T07:40:51.007Z,124.87
2018-10-18T07:43:18.574Z,140.23
2018-10-18T07:45:46.139Z,145.20
2018-10-18T07:48:14.928Z,142.33
2018-10-18T07:50:43.190Z,87.57
2018-10-18T07:53:10.942Z,88.70
2018-10-18T07:55:39.585Z,93.43
2018-10-18T07:58:07.948Z,75.20
2018-10-18T08:00:35.585Z,79.30
2018-10-18T08:03:03.106Z,87.30
2018-10-18T08:05:30.667Z,87.78
2018-10-18T08:07:58.227Z,84.20
2018-10-18T08:10:25.877Z,75.00
2018-10-18T08:12:53.445Z,70.33
2018-10-18T08:15:21.064Z,73.73
2018-10-18T08:17:49.737Z,75.60
2018-10-18T08:20:17.302Z,77.77
2018-10-18T08:22:44.977Z,90.70
2018-10-18T08:25:13.036Z,98.77
2018-10-18T08:27:40.525Z,103.75
2018-10-18T08:30:08.858Z,125.83
2018-10-18T08:32:36.474Z,134.97
2018-10-18T08:35:04.808Z,152.40
2018-10-18T08:37:32.431Z,147.67
2018-10-18T08:40:00.003Z,156.50
2018-10-18T08:42:27.582Z,161.93
2018-10-18T08:44:55.157Z,145.30
2018-10-18T08:47:22.786Z,140.60
2018-10-18T08:49:50.363Z,149.25
2018-10-18T08:52:17.923Z,156.90
2018-10-18T08:54:46.112Z,144.03
2018-10-18T08:57:13.687Z,139.80
2018-10-18T08:59:41.256Z,141.83
2018-10-18T09:02:09.734Z,147.70
2018-10-18T09:04:37.307Z,140.77
2018-10-18T09:07:04.896Z,139.67
2018-10-18T09:09:33.324Z,129.97
2018-10-18T09:12:00.891Z,131.33
2018-10-18T09:14:28.462Z,130.00
2018-10-18T09:16:57.251Z,126.73
2018-10-18T09:19:24.808Z,116.13
2018-10-18T09:21:52.386Z,120.50
2018-10-18T09:24:20.007Z,109.33
2018-10-18T09:26:47.577Z,127.57
2018-10-18T09:29:15.158Z,112.13
2018-10-18T09:31:43.324Z,115.90
2018-10-18T09:34:11.030Z,132.48
2018-10-18T09:36:38.587Z,116.13
2018-10-18T09:39:07.315Z,125.45
2018-10-18T09:41:34.882Z,115.97
2018-10-18T09:44:02.594Z,120.30
2018-10-18T09:46:31.025Z,113.83
2018-10-18T09:48:58.640Z,123.57
2018-10-18T09:51:26.174Z,118.33
2018-10-18T09:53:54.141Z,119.17
2018-10-18T09:56:21.732Z,118.47
2018-10-18T09:58:50.089Z,124.43
2018-10-18T10:01:18.507Z,117.63
2018-10-18T10:03:46.030Z,109.80
2018-10-18T10:06:13.591Z,104.13
2018-10-18T10:08:41.190Z,105.57
2018-10-18T10:11:09.610Z,98.00
2018-10-18T10:13:37.249Z,101.73
2018-10-18T10:16:04.739Z,102.33
2018-10-18T10:18:33.129Z,104.97
2018-10-18T10:21:00.690Z,98.67
2018-10-18T10:23:28.255Z,98.43
2018-10-18T10:25:56.314Z,104.20
2018-10-18T10:28:23.878Z,105.53
2018-10-18T10:30:52.569Z,97.63
2018-10-18T10:33:20.260Z,96.70
2018-10-18T10:35:47.945Z,98.23
2018-10-18T10:38:15.345Z,97.80
2018-10-18T10:40:42.959Z,104.33
2018-10-18T10:43:11.300Z,102.43
2018-10-18T10:45:38.933Z,94.93
2018-10-18T10:48:09.515Z,105.60
2018-10-18T10:50:37.033Z,102.85
2018-10-18T10:53:04.723Z,95.90
2018-10-18T10:55:32.882Z,96.27
2018-10-18T10:58:00.469Z,115.05
2018-10-18T11:00:28.021Z,94.30
2018-10-18T11:02:57.391Z,98.62
2018-10-18T11:05:24.932Z,95.20
2018-10-18T11:07:52.556Z,91.70
2018-10-18T11:10:21.055Z,87.87
2018-10-18T11:12:49.392Z,88.77
2018-10-18T11:15:17.036Z,80.93
2018-10-18T11:17:45.275Z,88.07
2018-10-18T11:20:13.754Z,86.63
2018-10-18T11:22:41.174Z,84.13
2018-10-18T11:25:08.780Z,98.27
2018-10-18T11:27:36.348Z,81.03
2018-10-18T11:30:04.736Z,96.73
2018-10-18T11:32:33.068Z,111.50
2018-10-18T11:35:00.636Z,85.90
2018-10-18T11:37:28.253Z,85.87
2018-10-18T11:39:55.832Z,81.00
2018-10-18T11:42:23.406Z,79.57
2018-10-18T11:44:51.015Z,83.70
2018-10-18T11:47:18.582Z,77.90
2018-10-18T11:49:47.218Z,86.80
2018-10-18T11:52:14.830Z,79.23
2018-10-18T11:54:43.160Z,73.03
2018-10-18T11:57:10.729Z,82.40
2018-10-18T11:59:38.344Z,72.57
2018-10-18T12:02:05.930Z,99.43
2018-10-18T12:04:33.479Z,72.80
2018-10-18T12:07:02.357Z,75.80
2018-10-18T12:09:29.931Z,84.87
2018-10-18T12:11:57.492Z,75.87
2018-10-18T12:14:25.126Z,73.30
2018-10-18T12:16:53.509Z,74.03
2018-10-18T12:19:21.019Z,71.13
2018-10-18T12:21:48.612Z,89.33
2018-10-18T12:24:16.352Z,83.77
2018-10-18T12:26:45.064Z,106.50
2018-10-18T12:30:06.781Z,79.03
2018-10-18T12:32:34.395Z,79.20
2018-10-18T12:35:02.042Z,76.90
2018-10-18T12:37:29.527Z,106.83
2018-10-18T12:39:57.174Z,66.43
2018-10-18T12:42:24.781Z,83.80
2018-10-18T12:44:52.404Z,70.73
2018-10-18T12:47:21.095Z,68.90
2018-10-18T12:49:48.676Z,64.73
2018-10-18T12:52:16.361Z,95.57
2018-10-18T12:54:44.652Z,78.83
2018-10-18T12:57:14.159Z,75.53
2018-10-18T12:59:41.867Z,74.97
2018-10-18T13:02:09.504Z,87.18
2018-10-18T13:04:37.037Z,70.77
2018-10-18T13:07:04.762Z,70.62
2018-10-18T13:09:32.372Z,67.13
2018-10-18T13:11:59.967Z,72.23
2018-10-18T13:14:28.335Z,72.27
2018-10-18T13:16:56.001Z,87.90
2018-10-18T13:19:24.322Z,73.53
2018-10-18T13:21:51.964Z,75.60
2018-10-18T13:26:47.213Z,123.97
2018-10-18T13:29:14.835Z,76.97
2018-10-18T13:31:43.165Z,70.37
2018-10-18T13:34:10.811Z,75.17
2018-10-18T13:36:38.333Z,80.35
2018-10-18T13:39:07.315Z,92.03
2018-10-18T13:41:34.828Z,108.87
2018-10-18T13:44:02.513Z,73.67
2018-10-18T13:46:30.084Z,73.53
2018-10-18T13:48:57.640Z,102.80
2018-10-18T13:51:25.200Z,77.17
2018-10-18T13:53:52.833Z,83.00
2018-10-18T13:56:21.259Z,78.90
2018-10-18T13:58:48.839Z,79.30
2018-10-18T14:01:17.168Z,77.90
2018-10-18T14:03:45.076Z,73.40
2018-10-18T14:06:12.635Z,75.77
2018-10-18T14:08:41.159Z,73.83
2018-10-18T14:11:09.426Z,72.37
2018-10-18T14:13:37.744Z,85.90
2018-10-18T14:16:06.029Z,72.97
2018-10-18T14:18:33.642Z,73.10
2018-10-18T14:21:01.278Z,75.50
2018-10-18T14:23:29.683Z,74.13
2018-10-18T14:25:57.606Z,78.73
2018-10-18T14:28:25.412Z,80.10
2018-10-18T14:30:53.872Z,88.63
2018-10-18T14:33:21.370Z,76.03
2018-10-18T14:35:49.467Z,72.03
2018-10-18T14:38:17.109Z,70.77
2018-10-18T14:40:44.642Z,69.13
2018-10-18T14:43:13.033Z,74.60
2018-10-18T14:45:40.598Z,72.50
2018-10-18T14:48:08.315Z,71.97
2018-10-18T14:50:36.077Z,73.43
2018-10-18T14:53:03.573Z,73.40
2018-10-18T14:55:31.070Z,71.00
2018-10-18T14:58:00.632Z,71.90
2018-10-18T15:00:28.199Z,76.63
2018-10-18T15:02:56.692Z,75.67
2018-10-18T15:05:25.636Z,79.53
2018-10-18T15:07:53.254Z,79.45
2018-10-18T15:10:20.844Z,76.07
2018-10-18T15:12:48.529Z,77.03
2018-10-18T15:15:16.786Z,75.20
2018-10-18T15:17:44.489Z,80.90
2018-10-18T15:20:12.124Z,70.63
2018-10-18T15:22:39.605Z,70.37
2018-10-18T15:25:07.256Z,79.10
2018-10-18T15:27:34.872Z,64.40
2018-10-18T15:30:02.435Z,73.93
2018-10-18T15:32:31.132Z,65.97
2018-10-18T15:34:58.672Z,68.23
2018-10-18T15:37:26.242Z,61.73
2018-10-18T15:39:54.772Z,68.60
2018-10-18T15:42:22.337Z,68.27
2018-10-18T15:44:49.940Z,66.17
2018-10-18T15:47:17.629Z,61.67
2018-10-18T15:49:45.112Z,58.33
2018-10-18T15:52:12.683Z,54.60
2018-10-18T15:54:40.327Z,63.83
2018-10-18T15:57:07.900Z,57.37
2018-10-18T15:59:36.057Z,54.30
2018-10-18T16:02:03.677Z,52.53
2018-10-18T16:04:32.000Z,62.30
2018-10-18T16:06:59.777Z,54.93
2018-10-18T16:09:27.339Z,52.87
2018-10-18T16:11:54.908Z,55.30
2018-10-18T16:14:22.641Z,51.67
2018-10-18T16:16:50.094Z,50.73
2018-10-18T16:19:17.662Z,53.80
2018-10-18T16:21:45.279Z,55.53
2018-10-18T16:24:13.174Z,56.20
2018-10-18T16:26:40.682Z,53.67
2018-10-18T16:29:09.371Z,51.97
2018-10-18T16:31:36.843Z,54.03
2018-10-18T16:34:04.529Z,55.40
2018-10-18T16:36:32.200Z,50.47
2018-10-18T16:39:00.538Z,55.20
2018-10-18T16:41:28.238Z,50.87
2018-10-18T16:43:55.892Z,51.83
2018-10-18T16:46:23.440Z,53.00
2018-10-18T16:48:51.234Z,52.40
2018-10-18T16:51:18.866Z,55.93
2018-10-18T16:53:46.500Z,54.90
2018-10-18T16:56:14.032Z,51.07
2018-10-18T16:58:42.961Z,58.22
2018-10-18T17:01:10.531Z,52.07
2018-10-18T17:03:38.170Z,53.13
2018-10-18T17:06:05.913Z,49.73
2018-10-18T17:08:33.421Z,50.53
2018-10-18T17:11:01.095Z,54.23
2018-10-18T17:13:28.744Z,62.53
2018-10-18T17:15:56.503Z,54.40
2018-10-18T17:18:24.155Z,54.13
2018-10-18T17:20:51.944Z,61.97
2018-10-18T17:23:19.388Z,63.80
2018-10-18T17:25:47.081Z,53.53
2018-10-18T17:28:14.770Z,58.47
2018-10-18T17:30:42.809Z,61.35
2018-10-18T17:33:13.683Z,57.93
2018-10-18T17:35:41.268Z,59.70
2018-10-18T17:38:08.864Z,57.33
2018-10-18T17:40:36.491Z,61.13
2018-10-18T17:43:04.007Z,58.10
2018-10-18T17:45:32.280Z,68.57
2018-10-18T17:47:59.950Z,59.10
2018-10-18T17:50:27.491Z,60.77
2018-10-18T17:52:55.354Z,61.50
2018-10-18T17:55:23.369Z,61.53
2018-10-18T17:57:51.709Z,61.00
2018-10-18T18:00:19.305Z,60.70
2018-10-18T18:02:46.927Z,67.03
2018-10-18T18:05:14.504Z,73.85
2018-10-18T18:07:42.071Z,65.00
2018-10-18T18:10:09.729Z,59.40
2018-10-18T18:12:37.285Z,69.00
2018-10-18T18:15:04.857Z,65.47
2018-10-18T18:17:32.485Z,66.80
2018-10-18T18:20:00.048Z,67.33
2018-10-18T18:22:27.610Z,69.60
2018-10-18T18:24:55.217Z,71.17
2018-10-18T18:27:23.548Z,62.97
2018-10-18T18:29:51.114Z,66.50
2018-10-18T18:32:18.782Z,67.43
2018-10-18T18:34:46.359Z,67.17
2018-10-18T18:37:13.922Z,69.83
2018-10-18T18:39:41.541Z,70.27
2018-10-18T18:42:09.105Z,71.05
2018-10-18T18:44:36.674Z,70.20
2018-10-18T18:47:04.447Z,71.73
2018-10-18T18:49:32.028Z,72.87
2018-10-18T18:51:59.636Z,73.97
2018-10-18T18:54:27.199Z,72.67
2018-10-18T18:56:54.777Z,76.03
2018-10-18T18:59:22.477Z,75.47
2018-10-18T19:01:50.074Z,71.53
2018-10-18T19:04:18.540Z,83.40
2018-10-18T19:06:46.115Z,89.23
2018-10-18T19:09:13.719Z,77.37
2018-10-18T19:11:42.064Z,70.80
2018-10-18T19:14:10.398Z,70.83
2018-10-18T19:16:37.971Z,76.13
2018-10-18T19:19:08.072Z,75.40
2018-10-18T19:21:35.711Z,84.65
2018-10-18T19:24:03.319Z,78.90
2018-10-18T19:26:30.913Z,80.67
2018-10-18T19:28:59.238Z,77.80
2018-10-18T19:31:26.853Z,71.43
2018-10-18T19:33:55.248Z,69.70
2018-10-18T19:36:22.866Z,71.30
2018-10-18T19:38:50.492Z,77.20
2018-10-18T19:41:18.071Z,73.40
2018-10-18T19:43:45.634Z,76.03
2018-10-18T19:46:13.888Z,78.28
2018-10-18T19:48:41.368Z,78.87
2018-10-18T19:51:08.930Z,73.90
2018-10-18T19:53:36.529Z,86.03
2018-10-18T19:56:04.905Z,82.23
2018-10-18T19:58:33.409Z,75.70
2018-10-18T20:01:00.938Z,73.03
2018-10-18T20:03:28.497Z,66.57
2018-10-18T20:05:56.120Z,86.33
2018-10-18T20:08:23.774Z,77.63
2018-10-18T20:10:51.241Z,84.40
2018-10-18T20:13:18.823Z,80.57
2018-10-18T20:15:46.990Z,85.80
2018-10-18T20:18:15.471Z,80.67
2018-10-18T20:20:42.954Z,72.77
2018-10-18T20:23:10.519Z,76.47
2018-10-18T20:25:38.273Z,75.13
2018-10-18T20:28:05.929Z,82.70
2018-10-18T20:30:33.891Z,77.17
2018-10-18T20:33:02.018Z,84.03
2018-10-18T20:35:29.548Z,76.17
2018-10-18T20:37:57.107Z,74.73
2018-10-18T20:40:24.702Z,77.73
2018-10-18T20:42:53.029Z,71.80
2018-10-18T20:45:20.664Z,68.73
2018-10-18T20:47:48.489Z,69.30
2018-10-18T20:50:15.908Z,81.73
2018-10-18T20:52:43.616Z,79.43
2018-10-18T20:55:11.226Z,96.47
2018-10-18T20:57:38.790Z,93.00
2018-10-18T21:00:06.478Z,90.33
2018-10-18T21:02:34.766Z,87.67
2018-10-18T21:05:02.338Z,82.87
2018-10-18T21:07:30.119Z,80.97
2018-10-18T21:09:57.674Z,80.67
2018-10-18T21:12:26.009Z,81.93
2018-10-18T21:14:53.639Z,79.53
2018-10-18T21:17:21.167Z,76.57
2018-10-18T21:19:49.965Z,72.17
2018-10-18T21:22:17.487Z,79.93
2018-10-18T21:24:45.094Z,80.83
2018-10-18T21:27:12.849Z,74.03
2018-10-18T21:29:40.305Z,78.53
2018-10-18T21:32:07.868Z,87.63
2018-10-18T21:34:35.567Z,88.23
2018-10-18T21:37:03.098Z,97.00
2018-10-18T21:39:31.427Z,99.37
2018-10-18T21:41:59.082Z,97.03
2018-10-18T21:44:26.640Z,89.57
2018-10-18T21:46:54.251Z,92.40
2018-10-18T21:49:22.174Z,81.67
2018-10-18T21:51:50.181Z,94.72
2018-10-18T21:54:18.423Z,82.97
2018-10-18T21:56:45.980Z,84.63
2018-10-18T21:59:13.666Z,81.30
2018-10-18T22:01:41.226Z,75.10
2018-10-18T22:04:08.790Z,89.27
2018-10-18T22:06:36.428Z,87.20
2018-10-18T22:09:04.048Z,79.67
2018-10-18T22:11:31.573Z,82.27
2018-10-18T22:13:59.193Z,78.80
2018-10-18T22:16:26.772Z,81.20
2018-10-18T22:18:54.317Z,81.87
2018-10-18T22:21:22.328Z,76.40
2018-10-18T22:23:49.901Z,77.73
2018-10-18T22:26:17.532Z,80.57
2018-10-18T22:28:45.247Z,97.62
2018-10-18T22:31:12.798Z,90.40
2018-10-18T22:33:40.359Z,99.20
2018-10-18T22:36:08.515Z,83.20
2018-10-18T22:38:36.143Z,96.78
2018-10-18T22:41:03.784Z,88.83
2018-10-18T22:43:32.207Z,79.40
2018-10-18T22:45:59.975Z,79.10
2018-10-18T22:48:27.779Z,82.33
2018-10-18T22:50:55.432Z,92.23
2018-10-18T22:53:22.950Z,110.63
2018-10-18T22:55:50.505Z,86.00
2018-10-18T22:58:18.145Z,87.37
2018-10-18T23:00:46.476Z,81.87
2018-10-18T23:03:14.056Z,78.60
2018-10-18T23:05:41.646Z,79.47
2018-10-18T23:08:09.975Z,78.53
2018-10-18T23:10:37.537Z,73.03
2018-10-18T23:13:05.162Z,75.07
2018-10-18T23:15:33.494Z,78.63
2018-10-18T23:18:01.056Z,75.07
2018-10-18T23:20:28.649Z,78.23
2018-10-18T23:22:57.063Z,75.90
2018-10-18T23:25:24.623Z,78.33
2018-10-18T23:27:52.218Z,75.53
2018-10-18T23:30:20.134Z,76.47
2018-10-18T23:32:48.458Z,78.33
2018-10-18T23:35:16.187Z,74.23
2018-10-18T23:37:43.713Z,69.23
2018-10-18T23:40:11.278Z,68.93
2018-10-18T23:42:39.421Z,81.45
2018-10-18T23:45:07.036Z,71.60
2018-10-18T23:47:34.565Z,71.83
2018-10-18T23:50:02.158Z,68.27
2018-10-18T23:52:30.494Z,68.93
2018-10-18T23:54:58.563Z,68.20
2018-10-18T23:57:26.164Z,69.47
2018-10-18T23:59:53.678Z,66.57
